Time;durP1;ratioP1;P1;durP2;ratioP2;P2;SDS_P1;SDS_P2;PMS_P1;PMS_P2;Temp;Humidity;BMP_temperature;BMP_pressure;BME280_temperature;BME280_humidity;BME280_pressure;Samples;Min_cycle;Max_cycle;Signal;HPM_P1;HPM_P2
2024/01/07 06:01:10;;;;;;;32.90;13.63;;;;;;;;;;5709840;23;20791;-72
2024/01/07 06:03:36;;;;;;;33.97;13.53;;;;;;;;;;4974232;28;20447;-72
2024/01/07 06:06:02;;;;;;;30.57;14.00;;;;;;;;;;4974410;28;20407;-72
2024/01/07 06:08:28;;;;;;;32.30;14.50;;;;;;;;;;4974363;28;20443;-71
2024/01/07 06:10:54;;;;;;;30.00;12.20;;;;;;;;;;4974327;28;20435;-72
2024/01/07 06:13:20;;;;;;;29.00;13.47;;;;;;;;;;4974623;28;20463;-71
2024/01/07 06:15:46;;;;;;;34.37;14.10;;;;;;;;;;4974132;28;20467;-72
2024/01/07 06:18:12;;;;;;;29.73;13.40;;;;;;;;;;4974221;28;20490;-72
2024/01/07 06:20:38;;;;;;;35.97;13.40;;;;;;;;;;4974070;28;20427;-72
2024/01/07 06:23:04;;;;;;;28.57;13.27;;;;;;;;;;4974405;28;20470;-72
2024/01/07 06:25:30;;;;;;;35.03;14.87;;;;;;;;;;4974146;28;20469;-71
2024/01/07 06:27:56;;;;;;;26.43;13.97;;;;;;;;;;4974812;28;20490;-71
2024/01/07 06:30:22;;;;;;;36.13;15.07;;;;;;;;;;4973109;28;21018;-71
2024/01/07 06:32:48;;;;;;;30.13;12.60;;;;;;;;;;4974254;28;20419;-71
2024/01/07 06:35:14;;;;;;;25.13;12.00;;;;;;;;;;4973946;28;20415;-71
2024/01/07 06:37:40;;;;;;;29.27;13.63;;;;;;;;;;4974078;28;21069;-71
2024/01/07 06:40:06;;;;;;;35.93;14.57;;;;;;;;;;4974200;28;20503;-71
2024/01/07 06:42:32;;;;;;;36.70;15.03;;;;;;;;;;4972798;28;20535;-71
2024/01/07 06:44:58;;;;;;;26.50;13.90;;;;;;;;;;4973635;28;20491;-71
2024/01/07 06:47:24;;;;;;;33.87;13.83;;;;;;;;;;4973770;28;20514;-71
2024/01/07 06:49:50;;;;;;;35.33;15.60;;;;;;;;;;4973807;28;20828;-71
2024/01/07 06:52:15;;;;;;;28.60;14.00;;;;;;;;;;4973822;28;20954;-71
2024/01/07 06:54:41;;;;;;;36.60;14.20;;;;;;;;;;4973540;28;20472;-71
2024/01/07 06:57:07;;;;;;;25.60;14.23;;;;;;;;;;4973645;28;20459;-72
2024/01/07 06:59:33;;;;;;;29.47;12.60;;;;;;;;;;4973678;28;20495;-71
2024/01/07 07:01:59;;;;;;;29.73;13.53;;;;;;;;;;4973605;28;20447;-71
2024/01/07 07:04:25;;;;;;;26.50;12.13;;;;;;;;;;4973434;28;20711;-71
2024/01/07 07:06:51;;;;;;;24.93;12.63;;;;;;;;;;4973523;28;20445;-71
2024/01/07 07:09:17;;;;;;;22.63;12.23;;;;;;;;;;4973585;28;20459;-71
2024/01/07 07:11:43;;;;;;;21.40;13.00;;;;;;;;;;4973288;28;20850;-71
2024/01/07 07:14:09;;;;;;;27.70;12.03;;;;;;;;;;4973255;28;20427;-71
2024/01/07 07:16:35;;;;;;;23.03;12.00;;;;;;;;;;4973314;28;20416;-71
2024/01/07 07:19:01;;;;;;;23.67;11.30;;;;;;;;;;4973436;28;20471;-71
2024/01/07 07:21:27;;;;;;;17.33;11.00;;;;;;;;;;4973359;28;20439;-71
2024/01/07 07:23:53;;;;;;;21.23;9.77;;;;;;;;;;4973164;28;20407;-71
2024/01/07 07:26:19;;;;;;;19.63;9.73;;;;;;;;;;4973201;28;20404;-71
2024/01/07 07:28:45;;;;;;;21.73;10.60;;;;;;;;;;4973240;28;20418;-71
2024/01/07 07:31:12;;;;;;;21.07;9.97;;;;;;;;;;4972994;28;20438;-71
2024/01/07 07:33:39;;;;;;;22.30;10.43;;;;;;;;;;4972969;28;20915;-71
2024/01/07 07:36:05;;;;;;;20.30;10.43;;;;;;;;;;4973165;28;20422;-71
2024/01/07 07:38:32;;;;;;;20.40;9.90;;;;;;;;;;4973133;28;20989;-71
2024/01/07 07:40:59;;;;;;;15.67;9.30;;;;;;;;;;4973181;28;20432;-71
2024/01/07 07:43:25;;;;;;;19.13;8.60;;;;;;;;;;4988120;28;20430;-71
2024/01/07 07:45:51;;;;;;;15.20;8.60;;;;;;;;;;4972800;28;20467;-71
2024/01/07 07:48:17;;;;;;;19.77;10.17;;;;;;;;;;4973114;28;20779;-71
2024/01/07 07:50:43;;;;;;;15.33;8.90;;;;;;;;;;4973224;28;20447;-71
2024/01/07 07:53:09;;;;;;;15.67;9.40;;;;;;;;;;4973306;28;20412;-71
2024/01/07 07:55:35;;;;;;;22.37;9.40;;;;;;;;;;4972813;28;20454;-71
2024/01/07 07:58:01;;;;;;;17.53;9.10;;;;;;;;;;4972984;28;20480;-71
2024/01/07 08:00:27;;;;;;;19.87;9.20;;;;;;;;;;4972751;28;20481;-72
2024/01/07 08:02:53;;;;;;;22.27;9.97;;;;;;;;;;4975625;28;20875;-71
2024/01/07 08:05:19;;;;;;;18.17;9.60;;;;;;;;;;4976542;28;20419;-73
2024/01/07 08:07:45;;;;;;;15.27;8.33;;;;;;;;;;4976881;28;20419;-70
2024/01/07 08:10:11;;;;;;;17.23;8.93;;;;;;;;;;4976754;28;20416;-71
2024/01/07 08:12:37;;;;;;;18.13;8.30;;;;;;;;;;4976765;28;20419;-71
2024/01/07 08:15:03;;;;;;;14.87;8.23;;;;;;;;;;4976429;28;20412;-71
2024/01/07 08:17:29;;;;;;;15.83;8.40;;;;;;;;;;4976500;28;20451;-71
2024/01/07 08:19:55;;;;;;;19.20;8.60;;;;;;;;;;4976615;28;20403;-71
2024/01/07 08:22:21;;;;;;;14.70;8.53;;;;;;;;;;4976318;28;20451;-71
2024/01/07 08:24:47;;;;;;;16.60;8.53;;;;;;;;;;4976205;28;20404;-71
2024/01/07 08:27:12;;;;;;;15.47;8.70;;;;;;;;;;4976385;28;20722;-71
2024/01/07 08:29:38;;;;;;;14.20;7.70;;;;;;;;;;4976347;28;20958;-71
2024/01/07 08:32:05;;;;;;;15.30;7.60;;;;;;;;;;4976180;28;20443;-71
2024/01/07 08:34:31;;;;;;;13.10;7.33;;;;;;;;;;4976079;28;20416;-71
2024/01/07 08:36:56;;;;;;;13.17;8.13;;;;;;;;;;4976091;28;20427;-71
2024/01/07 08:39:22;;;;;;;16.23;8.40;;;;;;;;;;4976222;28;20416;-71
2024/01/07 08:41:48;;;;;;;15.03;8.43;;;;;;;;;;4990979;28;20448;-71
2024/01/07 08:44:14;;;;;;;18.37;8.60;;;;;;;;;;4975947;28;20901;-71
2024/01/07 08:46:40;;;;;;;22.30;8.40;;;;;;;;;;4976039;28;20986;-71
2024/01/07 08:49:06;;;;;;;15.20;8.20;;;;;;;;;;4976475;28;20788;-71
2024/01/07 08:51:32;;;;;;;18.87;8.13;;;;;;;;;;4976051;28;20947;-71
2024/01/07 08:53:59;;;;;;;15.60;8.00;;;;;;;;;;4975466;28;20416;-71
2024/01/07 08:56:25;;;;;;;15.90;9.30;;;;;;;;;;4975903;28;20443;-71
2024/01/07 08:58:52;;;;;;;21.57;9.10;;;;;;;;;;4975588;28;20463;-72
2024/01/07 09:01:18;;;;;;;13.80;7.77;;;;;;;;;;4975359;28;20447;-73
2024/01/07 09:03:44;;;;;;;13.13;7.70;;;;;;;;;;4975455;28;20408;-72
2024/01/07 09:06:10;;;;;;;15.23;6.83;;;;;;;;;;4990450;28;20462;-72
2024/01/07 09:08:36;;;;;;;14.93;6.33;;;;;;;;;;4975396;28;20420;-71
2024/01/07 09:11:05;;;;;;;12.23;7.60;;;;;;;;;;4975109;28;20530;-71
2024/01/07 09:13:32;;;;;;;12.67;7.00;;;;;;;;;;4973967;28;20436;-71
2024/01/07 09:15:58;;;;;;;6.97;4.97;;;;;;;;;;4975561;28;20466;-71
2024/01/07 09:18:24;;;;;;;10.60;5.40;;;;;;;;;;4975346;28;20462;-71
2024/01/07 09:20:49;;;;;;;9.83;5.10;;;;;;;;;;4975257;28;20928;-71
2024/01/07 09:23:15;;;;;;;6.70;4.20;;;;;;;;;;4975239;28;20447;-71
2024/01/07 09:25:42;;;;;;;13.20;5.93;;;;;;;;;;4974985;28;20412;-71
2024/01/07 09:28:08;;;;;;;8.63;5.50;;;;;;;;;;4975143;28;20808;-72
2024/01/07 09:30:34;;;;;;;10.10;5.10;;;;;;;;;;4975147;28;20435;-72
2024/01/07 09:33:00;;;;;;;7.50;4.60;;;;;;;;;;4990391;28;20420;-71
2024/01/07 09:35:26;;;;;;;8.87;5.30;;;;;;;;;;4974818;28;20455;-71
2024/01/07 09:37:52;;;;;;;8.97;5.37;;;;;;;;;;4974920;28;20783;-72
2024/01/07 09:40:19;;;;;;;10.80;5.20;;;;;;;;;;4974851;28;20412;-72
2024/01/07 09:42:45;;;;;;;9.97;5.97;;;;;;;;;;4974924;28;20408;-72
2024/01/07 09:45:13;;;;;;;7.80;5.20;;;;;;;;;;4975286;28;20774;-72
2024/01/07 09:47:40;;;;;;;7.63;4.83;;;;;;;;;;4974915;28;20444;-72
2024/01/07 09:50:06;;;;;;;8.03;4.70;;;;;;;;;;4975548;28;20502;-72
2024/01/07 09:52:33;;;;;;;8.43;5.30;;;;;;;;;;4975262;28;20588;-72
2024/01/07 09:55:03;;;;;;;7.67;5.30;;;;;;;;;;4974935;28;20892;-73
2024/01/07 09:57:30;;;;;;;14.10;6.00;;;;;;;;;;4974670;28;20459;-71
2024/01/07 09:59:56;;;;;;;11.93;5.73;;;;;;;;;;4975235;28;20545;-71
2024/01/07 10:02:23;;;;;;;8.33;5.30;;;;;;;;;;4974517;28;20966;-71
2024/01/07 10:04:49;;;;;;;8.93;5.40;;;;;;;;;;4974489;28;20420;-71
2024/01/07 10:07:16;;;;;;;13.50;6.47;;;;;;;;;;4974776;28;20832;-72
2024/01/07 10:09:42;;;;;;;11.90;6.10;;;;;;;;;;4989404;28;20424;-71
2024/01/07 10:12:08;;;;;;;10.50;6.20;;;;;;;;;;4975075;28;20459;-71
2024/01/07 10:14:35;;;;;;;12.27;6.60;;;;;;;;;;4974244;28;20428;-71
2024/01/07 10:17:01;;;;;;;17.53;7.03;;;;;;;;;;4974817;28;20794;-72
2024/01/07 10:19:27;;;;;;;7.10;4.67;;;;;;;;;;4974526;28;20408;-72
2024/01/07 10:22:02;;;;;;;12.07;6.17;;;;;;;;;;4974470;28;20784;-71
2024/01/07 10:24:39;;;;;;;9.00;5.27;;;;;;;;;;4988972;28;20412;-71
2024/01/07 10:27:05;;;;;;;10.70;5.60;;;;;;;;;;4974120;28;20410;-71
2024/01/07 10:29:31;;;;;;;12.03;5.90;;;;;;;;;;4974028;28;20443;-72
2024/01/07 10:32:04;;;;;;;10.43;5.70;;;;;;;;;;4973905;28;20442;-71
2024/01/07 10:34:34;;;;;;;11.90;5.67;;;;;;;;;;4973653;28;20404;-71
2024/01/07 10:37:01;;;;;;;13.47;6.90;;;;;;;;;;4973962;28;20447;-71
2024/01/07 10:39:27;;;;;;;13.63;7.07;;;;;;;;;;4974152;28;20419;-71
2024/01/07 10:41:57;;;;;;;12.50;6.53;;;;;;;;;;4973875;28;20507;-71
2024/01/07 10:44:24;;;;;;;15.53;7.17;;;;;;;;;;4973732;28;20420;-72
2024/01/07 10:46:50;;;;;;;15.70;7.67;;;;;;;;;;4973835;28;20415;-71
2024/01/07 10:49:23;;;;;;;14.37;6.90;;;;;;;;;;4973690;28;20428;-72
2024/01/07 10:51:56;;;;;;;17.70;7.40;;;;;;;;;;4973669;28;20430;-71
2024/01/07 10:54:22;;;;;;;11.20;6.37;;;;;;;;;;4973634;28;20912;-72
2024/01/07 10:56:49;;;;;;;16.50;7.17;;;;;;;;;;4973443;28;20495;-72
2024/01/07 10:59:15;;;;;;;11.97;6.53;;;;;;;;;;4973430;28;20454;-72
2024/01/07 11:01:43;;;;;;;13.13;6.93;;;;;;;;;;4973072;28;20542;-71
2024/01/07 11:04:15;;;;;;;12.50;7.67;;;;;;;;;;4973384;28;20453;-72
2024/01/07 11:07:00;;;;;;;12.23;7.17;;;;;;;;;;4973342;28;20447;-72
2024/01/07 11:09:45;;;;;;;10.07;6.70;;;;;;;;;;4973411;28;20412;-72
2024/01/07 11:12:11;;;;;;;12.67;6.40;;;;;;;;;;4973177;28;20446;-72
2024/01/07 11:14:40;;;;;;;10.77;6.33;;;;;;;;;;4973035;28;20426;-72
2024/01/07 11:17:06;;;;;;;11.47;7.63;;;;;;;;;;4973179;28;20422;-72
2024/01/07 11:19:33;;;;;;;10.13;6.00;;;;;;;;;;4973329;28;20412;-72
2024/01/07 11:22:17;;;;;;;13.60;6.33;;;;;;;;;;4972964;28;20829;-72
2024/01/07 11:24:43;;;;;;;9.33;6.20;;;;;;;;;;4972936;28;20410;-72
2024/01/07 11:27:09;;;;;;;11.00;7.33;;;;;;;;;;4973182;28;20753;-72
2024/01/07 11:29:36;;;;;;;15.07;7.60;;;;;;;;;;4973191;28;20408;-72
2024/01/07 11:32:02;;;;;;;11.27;6.70;;;;;;;;;;4972996;28;20442;-72
2024/01/07 11:34:43;;;;;;;10.80;6.00;;;;;;;;;;4972761;28;20503;-72
2024/01/07 11:37:13;;;;;;;10.70;7.10;;;;;;;;;;4972269;28;20467;-72
2024/01/07 11:39:43;;;;;;;14.60;7.00;;;;;;;;;;4987811;28;20420;-72
2024/01/07 11:42:09;;;;;;;12.50;6.20;;;;;;;;;;4972995;28;20428;-72
2024/01/07 11:44:38;;;;;;;15.93;6.73;;;;;;;;;;4972819;28;20795;-72
2024/01/07 11:47:05;;;;;;;13.40;7.30;;;;;;;;;;4973015;28;20440;-72
2024/01/07 11:49:32;;;;;;;12.47;6.60;;;;;;;;;;4972934;28;20404;-72
2024/01/07 11:51:58;;;;;;;12.07;6.80;;;;;;;;;;4972868;28;20974;-72
2024/01/07 11:54:24;;;;;;;11.73;6.60;;;;;;;;;;4972784;28;20470;-72
2024/01/07 11:56:50;;;;;;;12.33;7.00;;;;;;;;;;4972830;28;20408;-72
2024/01/07 11:59:16;;;;;;;14.53;7.37;;;;;;;;;;4972850;28;20459;-72
2024/01/07 12:01:42;;;;;;;15.83;7.53;;;;;;;;;;4972830;28;20470;-72
2024/01/07 12:04:09;;;;;;;20.27;7.43;;;;;;;;;;4972604;28;20416;-72
2024/01/07 12:06:35;;;;;;;9.83;5.90;;;;;;;;;;4972951;28;20822;-72
2024/01/07 12:09:01;;;;;;;12.07;6.80;;;;;;;;;;4973030;28;20412;-72
2024/01/07 12:11:27;;;;;;;13.20;8.40;;;;;;;;;;4972631;28;20431;-72
2024/01/07 12:13:54;;;;;;;13.13;7.07;;;;;;;;;;4973280;28;20414;-72
2024/01/07 12:16:20;;;;;;;11.83;7.83;;;;;;;;;;4972743;28;20495;-72
2024/01/07 12:18:46;;;;;;;13.70;8.17;;;;;;;;;;4972554;28;20459;-72
2024/01/07 12:21:19;;;;;;;17.10;8.70;;;;;;;;;;4972507;28;20424;-72
2024/01/07 12:23:48;;;;;;;16.60;8.73;;;;;;;;;;4973831;28;20408;-72
2024/01/07 12:26:14;;;;;;;17.13;8.57;;;;;;;;;;4972633;28;20916;-72
2024/01/07 12:28:40;;;;;;;15.57;8.17;;;;;;;;;;4972671;28;20459;-72
2024/01/07 12:31:06;;;;;;;18.97;8.70;;;;;;;;;;4972290;28;20432;-72
2024/01/07 12:33:33;;;;;;;14.27;7.80;;;;;;;;;;4972246;28;20446;-72
2024/01/07 12:36:00;;;;;;;15.97;8.20;;;;;;;;;;4972696;28;20415;-71
2024/01/07 12:38:26;;;;;;;12.80;8.80;;;;;;;;;;4987480;28;20478;-73
2024/01/07 12:40:52;;;;;;;14.67;8.10;;;;;;;;;;4972505;28;20930;-73
2024/01/07 12:43:18;;;;;;;15.80;8.80;;;;;;;;;;4972673;28;20412;-71
2024/01/07 12:45:46;;;;;;;16.67;9.03;;;;;;;;;;4972210;28;20975;-72
2024/01/07 12:48:12;;;;;;;19.70;10.27;;;;;;;;;;4973707;28;20419;-72
2024/01/07 12:50:38;;;;;;;16.30;9.00;;;;;;;;;;4975800;28;20439;-72
2024/01/07 12:53:05;;;;;;;18.37;8.80;;;;;;;;;;4975773;28;20420;-72
2024/01/07 12:55:31;;;;;;;19.80;10.20;;;;;;;;;;4975722;28;20495;-72
2024/01/07 12:57:58;;;;;;;16.50;8.57;;;;;;;;;;4975877;28;20455;-72
2024/01/07 13:00:25;;;;;;;17.87;8.53;;;;;;;;;;4975479;28;20467;-73
2024/01/07 13:02:51;;;;;;;22.23;9.40;;;;;;;;;;4975677;28;20416;-72
2024/01/07 13:05:18;;;;;;;20.67;9.33;;;;;;;;;;4975330;28;20534;-72
2024/01/07 13:07:44;;;;;;;17.63;8.60;;;;;;;;;;4975670;28;20438;-72
2024/01/07 13:10:10;;;;;;;16.70;8.97;;;;;;;;;;4975560;28;20413;-72
2024/01/07 13:12:36;;;;;;;15.10;8.77;;;;;;;;;;4975942;28;20920;-72
2024/01/07 13:15:03;;;;;;;17.50;9.97;;;;;;;;;;4975143;28;20560;-72
2024/01/07 13:17:30;;;;;;;19.87;9.00;;;;;;;;;;4975450;28;20495;-72
2024/01/07 13:19:56;;;;;;;13.80;8.50;;;;;;;;;;4975355;28;20414;-72
2024/01/07 13:22:22;;;;;;;15.93;8.93;;;;;;;;;;4975522;28;20987;-72
2024/01/07 13:24:48;;;;;;;22.03;9.73;;;;;;;;;;4975054;28;20408;-72
2024/01/07 13:27:14;;;;;;;19.13;9.43;;;;;;;;;;4975083;28;20946;-72
2024/01/07 13:29:41;;;;;;;19.30;9.67;;;;;;;;;;4975179;28;20412;-72
2024/01/07 13:32:07;;;;;;;17.83;9.40;;;;;;;;;;4975961;28;20795;-71
2024/01/07 13:34:33;;;;;;;17.33;9.70;;;;;;;;;;4975908;28;20416;-72
2024/01/07 13:36:59;;;;;;;19.47;10.20;;;;;;;;;;4974882;28;20420;-72
2024/01/07 13:39:25;;;;;;;19.93;10.20;;;;;;;;;;4974968;28;20458;-72
2024/01/07 13:41:51;;;;;;;18.87;9.70;;;;;;;;;;4974834;28;20511;-72
2024/01/07 13:44:19;;;;;;;21.13;10.30;;;;;;;;;;4974541;28;20982;-72
2024/01/07 13:46:46;;;;;;;17.20;9.53;;;;;;;;;;4974840;28;20420;-72
2024/01/07 13:49:13;;;;;;;15.63;9.40;;;;;;;;;;4974951;28;20451;-72
2024/01/07 13:51:39;;;;;;;18.40;9.53;;;;;;;;;;4974624;28;20951;-72
2024/01/07 13:54:05;;;;;;;17.03;9.97;;;;;;;;;;4974563;28;20424;-72
2024/01/07 13:56:31;;;;;;;22.47;10.37;;;;;;;;;;4974560;28;20776;-72
2024/01/07 13:58:57;;;;;;;21.27;9.47;;;;;;;;;;4974462;28;20467;-72
2024/01/07 14:01:23;;;;;;;16.43;9.50;;;;;;;;;;4973768;28;20551;-72
2024/01/07 14:03:49;;;;;;;19.67;10.37;;;;;;;;;;4974588;28;20408;-72
2024/01/07 14:06:15;;;;;;;21.60;10.10;;;;;;;;;;4974853;28;20411;-72
2024/01/07 14:08:41;;;;;;;22.60;10.27;;;;;;;;;;4974321;28;20412;-72
2024/01/07 14:11:07;;;;;;;18.80;9.93;;;;;;;;;;4974207;28;20486;-72
2024/01/07 14:13:34;;;;;;;20.80;10.20;;;;;;;;;;4974112;28;20416;-72
2024/01/07 14:16:00;;;;;;;20.20;10.50;;;;;;;;;;4973043;28;20415;-72
2024/01/07 14:18:26;;;;;;;20.37;10.43;;;;;;;;;;4974013;28;20470;-72
2024/01/07 14:20:52;;;;;;;19.40;10.80;;;;;;;;;;4973966;28;20777;-72
2024/01/07 14:23:18;;;;;;;24.97;11.77;;;;;;;;;;4976933;28;20459;-72
2024/01/07 14:25:44;;;;;;;21.80;10.50;;;;;;;;;;4973683;28;20431;-72
2024/01/07 14:28:10;;;;;;;23.57;11.13;;;;;;;;;;4973899;28;20423;-72
2024/01/07 14:30:36;;;;;;;27.97;12.20;;;;;;;;;;4973646;28;20483;-72
2024/01/07 14:33:02;;;;;;;23.50;11.37;;;;;;;;;;4973844;28;20412;-72
2024/01/07 14:35:30;;;;;;;25.10;12.07;;;;;;;;;;4973602;28;20423;-72
2024/01/07 14:37:58;;;;;;;31.40;13.37;;;;;;;;;;4973649;28;20460;-72
2024/01/07 14:40:24;;;;;;;23.83;11.37;;;;;;;;;;4973328;28;20466;-72
2024/01/07 14:42:52;;;;;;;27.27;12.23;;;;;;;;;;4973511;28;20419;-74
2024/01/07 14:45:18;;;;;;;27.93;13.30;;;;;;;;;;4973981;28;20892;-72
2024/01/07 14:47:44;;;;;;;22.60;13.00;;;;;;;;;;4973806;28;20418;-72
2024/01/07 14:50:10;;;;;;;28.57;12.80;;;;;;;;;;4973807;28;20412;-72
2024/01/07 14:52:36;;;;;;;28.87;12.97;;;;;;;;;;4973728;28;20502;-72
2024/01/07 14:55:02;;;;;;;22.73;11.70;;;;;;;;;;4973280;28;20463;-71
2024/01/07 14:57:28;;;;;;;21.43;9.93;;;;;;;;;;4973809;28;20502;-72
2024/01/07 14:59:54;;;;;;;29.30;13.40;;;;;;;;;;4973594;28;20408;-72
2024/01/07 15:02:21;;;;;;;21.00;10.90;;;;;;;;;;4973571;28;20452;-72
2024/01/07 15:04:46;;;;;;;26.90;10.10;;;;;;;;;;4973566;28;20426;-72
2024/01/07 15:07:12;;;;;;;20.97;9.93;;;;;;;;;;4973482;28;20407;-72
2024/01/07 15:09:41;;;;;;;21.43;11.37;;;;;;;;;;4973338;28;20443;-72
2024/01/07 15:12:07;;;;;;;23.03;10.67;;;;;;;;;;4972364;28;20450;-72
2024/01/07 15:14:34;;;;;;;20.20;9.40;;;;;;;;;;4973218;28;20443;-72
2024/01/07 15:17:00;;;;;;;17.60;10.33;;;;;;;;;;4973333;28;20412;-72
2024/01/07 15:19:26;;;;;;;26.63;13.10;;;;;;;;;;4973436;28;20408;-72
2024/01/07 15:21:52;;;;;;;25.63;11.40;;;;;;;;;;4972916;28;20451;-72
2024/01/07 15:24:19;;;;;;;30.40;12.03;;;;;;;;;;4973203;28;20419;-72
2024/01/07 15:26:45;;;;;;;27.10;11.67;;;;;;;;;;4973595;28;20922;-72
2024/01/07 15:29:11;;;;;;;26.87;12.00;;;;;;;;;;4973600;28;20415;-72
2024/01/07 15:31:36;;;;;;;22.57;11.10;;;;;;;;;;4973037;28;20515;-72
2024/01/07 15:34:03;;;;;;;32.10;12.77;;;;;;;;;;4972857;28;20412;-73
2024/01/07 15:36:28;;;;;;;25.60;11.57;;;;;;;;;;4972962;28;20771;-73
2024/01/07 15:38:54;;;;;;;31.20;12.23;;;;;;;;;;4973047;28;20467;-72
2024/01/07 15:41:20;;;;;;;27.47;11.80;;;;;;;;;;4973232;28;20534;-72
2024/01/07 15:43:46;;;;;;;34.73;14.27;;;;;;;;;;4973228;28;20408;-72
2024/01/07 15:46:12;;;;;;;29.50;13.00;;;;;;;;;;4973247;28;20459;-72
2024/01/07 15:48:38;;;;;;;29.77;13.77;;;;;;;;;;4972379;28;20416;-71
2024/01/07 15:51:04;;;;;;;34.10;14.70;;;;;;;;;;4973192;28;20791;-72
2024/01/07 15:53:34;;;;;;;27.87;13.97;;;;;;;;;;4973695;28;20415;-71
2024/01/07 15:56:05;;;;;;;29.43;14.30;;;;;;;;;;4973619;28;20459;-71
2024/01/07 15:58:33;;;;;;;32.13;14.67;;;;;;;;;;4974025;28;20827;-71
2024/01/07 16:01:00;;;;;;;34.77;15.70;;;;;;;;;;4972723;28;20467;-71
2024/01/07 16:03:26;;;;;;;39.13;15.20;;;;;;;;;;4974510;28;20412;-71
2024/01/07 16:05:52;;;;;;;37.47;15.03;;;;;;;;;;4973870;28;20892;-71
2024/01/07 16:08:20;;;;;;;29.83;13.37;;;;;;;;;;4973971;28;20503;-71
2024/01/07 16:10:46;;;;;;;29.97;13.90;;;;;;;;;;4972671;28;20435;-72
2024/01/07 16:13:12;;;;;;;36.30;15.03;;;;;;;;;;4972584;28;20423;-72
2024/01/07 16:15:38;;;;;;;32.07;14.43;;;;;;;;;;4972575;28;20438;-71
2024/01/07 16:18:04;;;;;;;30.20;14.40;;;;;;;;;;4972962;28;20466;-71
2024/01/07 16:20:30;;;;;;;28.87;13.77;;;;;;;;;;4973170;28;20436;-70
2024/01/07 16:22:56;;;;;;;28.83;12.77;;;;;;;;;;4974072;28;20899;-71
2024/01/07 16:25:22;;;;;;;31.63;14.47;;;;;;;;;;4976297;28;20404;-71
2024/01/07 16:27:48;;;;;;;28.17;12.47;;;;;;;;;;4976248;28;20460;-72
2024/01/07 16:30:14;;;;;;;29.00;13.20;;;;;;;;;;4974824;28;20499;-72
2024/01/07 16:32:40;;;;;;;33.13;13.60;;;;;;;;;;4976303;28;20776;-72
2024/01/07 16:35:07;;;;;;;31.07;13.27;;;;;;;;;;4975754;28;20415;-72
2024/01/07 16:37:33;;;;;;;28.23;12.03;;;;;;;;;;4976010;28;20460;-72
2024/01/07 16:39:59;;;;;;;31.70;12.03;;;;;;;;;;4976036;28;20408;-72
2024/01/07 16:42:25;;;;;;;31.63;11.50;;;;;;;;;;4976247;28;20431;-72
2024/01/07 16:44:51;;;;;;;26.87;12.53;;;;;;;;;;4974528;28;20436;-72
2024/01/07 16:47:16;;;;;;;28.13;13.63;;;;;;;;;;4976098;28;20477;-72
2024/01/07 16:49:42;;;;;;;34.53;14.30;;;;;;;;;;4976099;28;20435;-72
2024/01/07 16:52:08;;;;;;;25.93;12.60;;;;;;;;;;4975806;28;20439;-72
2024/01/07 16:54:35;;;;;;;28.50;12.67;;;;;;;;;;4975672;28;20411;-72
2024/01/07 16:57:01;;;;;;;28.53;13.27;;;;;;;;;;4975632;28;20419;-72
2024/01/07 16:59:27;;;;;;;33.00;14.60;;;;;;;;;;4976125;28;20423;-72
2024/01/07 17:01:54;;;;;;;32.90;14.17;;;;;;;;;;4975476;28;20970;-72
2024/01/07 17:04:20;;;;;;;31.97;14.57;;;;;;;;;;4975508;28;20780;-72
2024/01/07 17:06:46;;;;;;;26.20;14.03;;;;;;;;;;4975893;28;20480;-72
2024/01/07 17:09:12;;;;;;;37.37;15.00;;;;;;;;;;4975790;28;20416;-72
2024/01/07 17:11:39;;;;;;;26.83;12.63;;;;;;;;;;4975591;28;20779;-72
2024/01/07 17:14:05;;;;;;;35.07;13.90;;;;;;;;;;4975389;28;20897;-72
2024/01/07 17:16:31;;;;;;;26.37;12.53;;;;;;;;;;4975520;28;20416;-72
2024/01/07 17:18:56;;;;;;;27.23;11.90;;;;;;;;;;4974388;28;20503;-72
2024/01/07 17:21:24;;;;;;;34.93;12.23;;;;;;;;;;4975360;28;20427;-72
2024/01/07 17:23:51;;;;;;;25.80;11.30;;;;;;;;;;4975530;28;20498;-72
2024/01/07 17:26:23;;;;;;;25.83;11.20;;;;;;;;;;4976258;28;20542;-72
2024/01/07 17:28:49;;;;;;;28.40;11.90;;;;;;;;;;4977391;28;20443;-72
2024/01/07 17:31:15;;;;;;;25.30;12.00;;;;;;;;;;4976463;28;20423;-72
2024/01/07 17:33:41;;;;;;;29.10;11.93;;;;;;;;;;4975767;28;20411;-71
2024/01/07 17:36:07;;;;;;;20.90;8.93;;;;;;;;;;4975023;28;20502;-71
2024/01/07 17:38:34;;;;;;;23.60;10.37;;;;;;;;;;4977287;28;20860;-71
2024/01/07 17:40:59;;;;;;;19.20;8.90;;;;;;;;;;4975993;28;20432;-71
2024/01/07 17:43:25;;;;;;;20.13;8.57;;;;;;;;;;4977345;28;20404;-71
2024/01/07 17:45:54;;;;;;;23.70;10.30;;;;;;;;;;4977410;28;20773;-72
2024/01/07 17:48:20;;;;;;;23.50;10.03;;;;;;;;;;4975118;28;20431;-71
2024/01/07 17:50:46;;;;;;;27.17;11.60;;;;;;;;;;4974926;28;20823;-71
2024/01/07 17:53:13;;;;;;;26.27;11.90;;;;;;;;;;4974800;28;20424;-71
2024/01/07 17:55:39;;;;;;;25.47;11.53;;;;;;;;;;4974562;28;20424;-71
2024/01/07 17:58:06;;;;;;;30.07;11.63;;;;;;;;;;4974674;28;20467;-71
2024/01/07 18:00:33;;;;;;;31.50;12.07;;;;;;;;;;4974528;28;20431;-72
2024/01/07 18:03:05;;;;;;;26.40;12.23;;;;;;;;;;4974693;28;20408;-71
2024/01/07 18:05:31;;;;;;;23.70;10.93;;;;;;;;;;4974681;28;20483;-71
2024/01/07 18:07:57;;;;;;;18.93;8.73;;;;;;;;;;4973679;28;20912;-71
2024/01/07 18:10:23;;;;;;;22.83;11.47;;;;;;;;;;4974404;28;20424;-72
2024/01/07 18:12:49;;;;;;;26.63;9.90;;;;;;;;;;4974550;28;20761;-71
2024/01/07 18:15:15;;;;;;;19.37;9.73;;;;;;;;;;4974390;28;20929;-71
2024/01/07 18:17:43;;;;;;;26.90;8.07;;;;;;;;;;4974609;28;20463;-71
2024/01/07 18:20:10;;;;;;;19.40;8.27;;;;;;;;;;4974501;28;20485;-71
2024/01/07 18:22:36;;;;;;;19.07;7.37;;;;;;;;;;4974230;28;20408;-71
2024/01/07 18:25:02;;;;;;;20.57;8.70;;;;;;;;;;4974202;28;20495;-71
2024/01/07 18:27:27;;;;;;;21.47;8.63;;;;;;;;;;4974240;28;20880;-71
2024/01/07 18:29:55;;;;;;;19.63;9.30;;;;;;;;;;4974498;28;20408;-71
2024/01/07 18:32:21;;;;;;;19.43;8.33;;;;;;;;;;4974021;28;20487;-71
2024/01/07 18:34:46;;;;;;;19.80;8.93;;;;;;;;;;4974268;28;20418;-71
2024/01/07 18:37:13;;;;;;;19.00;7.50;;;;;;;;;;4989095;28;20933;-71
2024/01/07 18:39:39;;;;;;;16.60;7.93;;;;;;;;;;4974561;28;20419;-71
2024/01/07 18:42:05;;;;;;;20.37;7.77;;;;;;;;;;4973796;28;20490;-71
2024/01/07 18:44:31;;;;;;;19.70;7.77;;;;;;;;;;4973489;28;20477;-71
2024/01/07 18:46:57;;;;;;;19.63;9.70;;;;;;;;;;4973514;28;20427;-71
2024/01/07 18:49:23;;;;;;;14.17;7.50;;;;;;;;;;4973818;28;20444;-71
2024/01/07 18:51:49;;;;;;;18.77;8.70;;;;;;;;;;4973579;28;20501;-71
2024/01/07 18:54:15;;;;;;;15.80;7.53;;;;;;;;;;4973641;28;20561;-71
2024/01/07 18:56:41;;;;;;;19.90;8.37;;;;;;;;;;4973923;28;20872;-71
2024/01/07 18:59:07;;;;;;;16.57;7.77;;;;;;;;;;4974043;28;20463;-71
2024/01/07 19:01:34;;;;;;;20.00;8.73;;;;;;;;;;4973856;28;20443;-71
2024/01/07 19:04:01;;;;;;;18.00;9.20;;;;;;;;;;4973498;28;20408;-72
2024/01/07 19:06:27;;;;;;;21.93;9.10;;;;;;;;;;4973493;28;20852;-72
2024/01/07 19:08:53;;;;;;;19.63;8.40;;;;;;;;;;4973416;28;20458;-71
2024/01/07 19:11:19;;;;;;;13.37;7.73;;;;;;;;;;4975867;28;20812;-71
2024/01/07 19:13:45;;;;;;;15.80;7.73;;;;;;;;;;4974826;28;20838;-72
2024/01/07 19:16:11;;;;;;;16.87;7.53;;;;;;;;;;4973511;28;20509;-72
2024/01/07 19:18:37;;;;;;;16.27;7.57;;;;;;;;;;4973218;28;20471;-72
2024/01/07 19:21:03;;;;;;;14.90;7.70;;;;;;;;;;4973171;28;20937;-72
2024/01/07 19:23:29;;;;;;;12.80;7.23;;;;;;;;;;4973051;28;20497;-72
2024/01/07 19:25:55;;;;;;;19.13;8.13;;;;;;;;;;4972966;28;20506;-72
2024/01/07 19:28:21;;;;;;;18.40;8.57;;;;;;;;;;4973145;28;20411;-72
2024/01/07 19:30:51;;;;;;;15.10;8.57;;;;;;;;;;4972911;28;20670;-72
2024/01/07 19:33:19;;;;;;;20.33;7.97;;;;;;;;;;4973059;28;20414;-71
2024/01/07 19:35:44;;;;;;;14.83;8.27;;;;;;;;;;4972899;28;20430;-71
2024/01/07 19:38:10;;;;;;;14.37;8.60;;;;;;;;;;4972989;28;20455;-72
2024/01/07 19:40:36;;;;;;;16.93;8.13;;;;;;;;;;4973092;28;20424;-71
2024/01/07 19:43:03;;;;;;;13.47;7.63;;;;;;;;;;4973028;28;20459;-72
2024/01/07 19:45:29;;;;;;;15.03;7.30;;;;;;;;;;4972903;28;20463;-71
2024/01/07 19:47:56;;;;;;;14.67;7.77;;;;;;;;;;4973071;28;20496;-72
2024/01/07 19:50:25;;;;;;;12.50;7.73;;;;;;;;;;4973487;28;20423;-71
2024/01/07 19:52:51;;;;;;;16.47;8.90;;;;;;;;;;4973065;28;20852;-72
2024/01/07 19:55:17;;;;;;;16.70;9.30;;;;;;;;;;4972848;28;20499;-71
2024/01/07 19:57:43;;;;;;;19.10;9.70;;;;;;;;;;4973844;28;20981;-72
2024/01/07 20:00:12;;;;;;;16.97;9.00;;;;;;;;;;4977101;28;20419;-72
2024/01/07 20:02:38;;;;;;;18.10;9.00;;;;;;;;;;4976976;28;20803;-72
2024/01/07 20:05:05;;;;;;;19.87;9.50;;;;;;;;;;4991793;28;21032;-71
2024/01/07 20:07:30;;;;;;;17.47;8.13;;;;;;;;;;4976904;28;20419;-72
2024/01/07 20:09:56;;;;;;;16.30;8.47;;;;;;;;;;4976984;28;20793;-72
2024/01/07 20:12:22;;;;;;;18.77;7.27;;;;;;;;;;4976736;28;21029;-72
2024/01/07 20:14:48;;;;;;;17.13;8.07;;;;;;;;;;4976678;28;20968;-72
2024/01/07 20:17:14;;;;;;;17.57;8.60;;;;;;;;;;4977094;28;20783;-72
2024/01/07 20:19:40;;;;;;;20.77;8.87;;;;;;;;;;4976907;28;20942;-72
2024/01/07 20:22:07;;;;;;;12.00;7.67;;;;;;;;;;4976479;28;20938;-72